Time;durP1;ratioP1;P1;durP2;ratioP2;P2;SDS_P1;SDS_P2;PMS_P1;PMS_P2;Temp;Humidity;BMP_temperature;BMP_pressure;BME280_temperature;BME280_humidity;BME280_pressure;Samples;Min_cycle;Max_cycle;Signal;HPM_P1;HPM_P2
2024/01/22 00:06:29;;;;;;;259.40;110.20;;;;;;;-4.40;100.00;100180.34;272627;1272;22230;-84
2024/01/22 00:13:21;;;;;;;231.30;94.70;;;;;;;-4.48;100.00;100170.98;273436;1272;22185;-84
2024/01/22 00:19:23;;;;;;;192.30;78.90;;;;;;;-4.53;100.00;100164.08;271357;1270;22662;-84
2024/01/22 00:25:49;;;;;;;105.50;45.10;;;;;;;-4.57;100.00;100155.74;272350;1276;22314;-84
2024/01/22 00:32:31;;;;;;;91.80;37.70;;;;;;;-4.59;100.00;100157.27;273439;1272;22228;-84
2024/01/22 00:47:09;;;;;;;138.10;57.40;;;;;;;-4.52;100.00;100164.84;271721;1285;26791;-84
2024/01/22 00:54:01;;;;;;;145.60;62.70;;;;;;;-4.58;100.00;100168.45;271015;1284;22936;-84
2024/01/22 01:00:29;;;;;;;162.80;71.80;;;;;;;-4.67;100.00;100172.40;269266;1268;22276;-83
2024/01/22 01:07:00;;;;;;;172.50;71.50;;;;;;;-4.69;100.00;100183.13;271980;1254;22540;-83
2024/01/22 01:28:53;;;;;;;155.80;63.10;;;;;;;-4.92;100.00;100151.98;273552;1270;22287;-83
2024/01/22 01:35:19;;;;;;;124.60;53.50;;;;;;;-4.85;100.00;100132.48;270819;1272;22634;-83
2024/01/22 01:41:57;;;;;;;133.20;56.50;;;;;;;-4.88;100.00;100119.72;271926;1275;22551;-83
2024/01/22 02:11:57;;;;;;;140.60;58.50;;;;;;;-5.18;100.00;100092.92;270161;1271;25439;-83
2024/01/22 02:19:07;;;;;;;129.90;52.50;;;;;;;-5.27;100.00;100067.98;270742;1270;22593;-83
2024/01/22 02:33:05;;;;;;;131.00;51.30;;;;;;;-5.38;100.00;100047.27;273046;1259;114765;-83
2024/01/22 02:39:07;;;;;;;146.40;59.90;;;;;;;-5.40;100.00;100023.60;273613;1272;22562;-81
2024/01/22 02:45:09;;;;;;;132.60;53.60;;;;;;;-5.41;100.00;100010.31;272964;1270;23912;-81
2024/01/22 02:51:11;;;;;;;122.80;48.20;;;;;;;-5.39;100.00;99997.46;273162;1263;22625;-81
2024/01/22 02:57:14;;;;;;;123.10;50.20;;;;;;;-5.48;100.00;99992.81;269713;1271;25332;-80
2024/01/22 03:03:16;;;;;;;108.40;44.20;;;;;;;-5.61;100.00;99987.73;273363;1270;22382;-80
2024/01/22 03:09:18;;;;;;;117.90;49.10;;;;;;;-5.70;100.00;99988.66;272002;1270;22344;-80
2024/01/22 03:15:20;;;;;;;107.00;43.70;;;;;;;-5.67;100.00;99986.09;273606;1270;22267;-80
2024/01/22 03:21:21;;;;;;;117.20;42.70;;;;;;;-5.64;100.00;99987.05;273568;1270;22219;-80
2024/01/22 03:27:23;;;;;;;104.10;43.00;;;;;;;-5.62;100.00;99988.11;273537;1268;22203;-81
2024/01/22 03:33:25;;;;;;;105.20;41.60;;;;;;;-5.68;100.00;99982.40;273670;1270;23232;-80
2024/01/22 03:39:27;;;;;;;102.20;41.60;;;;;;;-5.67;100.00;99984.28;273537;1273;22387;-81
2024/01/22 03:45:28;;;;;;;99.20;36.70;;;;;;;-5.68;100.00;99979.79;273632;1273;22195;-81
2024/01/22 03:51:30;;;;;;;87.70;35.00;;;;;;;-5.73;100.00;99976.73;273622;1264;22225;-81
2024/01/22 03:57:32;;;;;;;77.00;32.10;;;;;;;-5.73;100.00;99968.63;273677;1269;22204;-80
2024/01/22 04:03:35;;;;;;;89.50;36.60;;;;;;;-5.62;100.00;99957.67;273719;1272;22190;-81
2024/01/22 04:09:36;;;;;;;97.20;39.30;;;;;;;-5.55;100.00;99952.48;272677;1269;22443;-82
2024/01/22 04:15:38;;;;;;;66.80;26.30;;;;;;;-5.57;100.00;99952.20;273470;1266;23564;-80
2024/01/22 04:21:45;;;;;;;79.30;32.40;;;;;;;-5.69;100.00;99952.30;272078;1263;23328;-80
2024/01/22 04:27:46;;;;;;;68.60;30.40;;;;;;;-5.76;100.00;99942.82;271649;1267;22427;-80
2024/01/22 04:33:48;;;;;;;68.80;29.40;;;;;;;-5.83;100.00;99937.37;273582;1269;23067;-80
2024/01/22 04:39:52;;;;;;;67.60;27.20;;;;;;;-5.86;100.00;99932.00;273778;1267;22689;-81
2024/01/22 04:45:54;;;;;;;72.00;31.60;;;;;;;-5.92;100.00;99928.13;273596;1269;22453;-80
2024/01/22 04:51:56;;;;;;;72.20;31.40;;;;;;;-6.03;100.00;99924.22;273652;1269;22271;-81
2024/01/22 04:57:57;;;;;;;81.00;31.10;;;;;;;-6.11;100.00;99915.20;273550;1270;22191;-81
2024/01/22 05:03:59;;;;;;;63.00;26.10;;;;;;;-6.15;100.00;99903.54;273645;1269;22298;-82
2024/01/22 05:10:06;;;;;;;80.90;34.00;;;;;;;-6.15;100.00;99901.04;273550;1269;22287;-81
2024/01/22 05:16:07;;;;;;;81.60;32.10;;;;;;;-6.23;100.00;99898.02;273450;1269;22178;-82
2024/01/22 05:22:09;;;;;;;86.20;34.70;;;;;;;-6.24;100.00;99900.79;272609;1270;22465;-81
2024/01/22 05:28:11;;;;;;;104.60;40.50;;;;;;;-6.22;100.00;99902.73;270650;1269;22560;-81
2024/01/22 05:34:13;;;;;;;113.30;42.00;;;;;;;-6.25;100.00;99894.48;272259;1269;23742;-81
2024/01/22 05:40:16;;;;;;;101.60;40.90;;;;;;;-6.33;100.00;99884.83;273436;1269;107091;-83
2024/01/22 05:46:18;;;;;;;110.60;44.00;;;;;;;-6.43;100.00;99881.90;271121;1270;22571;-81
2024/01/22 05:52:20;;;;;;;100.60;39.90;;;;;;;-6.38;100.00;99882.30;273167;1269;22221;-81
2024/01/22 05:58:22;;;;;;;123.20;48.20;;;;;;;-6.36;100.00;99878.11;273656;1269;22388;-81
2024/01/22 06:04:26;;;;;;;125.00;43.90;;;;;;;-6.33;100.00;99874.48;273595;1266;23320;-81
2024/01/22 06:10:29;;;;;;;112.10;45.60;;;;;;;-6.30;100.00;99871.98;273553;1269;22255;-80
2024/01/22 06:16:31;;;;;;;118.60;48.10;;;;;;;-6.27;100.00;99863.96;273596;1269;22299;-80
2024/01/22 06:22:34;;;;;;;117.50;48.50;;;;;;;-6.23;100.00;99857.58;273562;1269;22491;-81
2024/01/22 06:28:38;;;;;;;127.80;53.90;;;;;;;-6.19;100.00;99848.30;272298;1266;22587;-80
2024/01/22 06:34:40;;;;;;;133.20;57.20;;;;;;;-6.09;100.00;99836.88;273196;1267;22401;-79
2024/01/22 06:40:43;;;;;;;127.40;60.10;;;;;;;-6.02;100.00;99826.89;273233;1266;22275;-80
2024/01/22 06:46:44;;;;;;;95.10;45.50;;;;;;;-5.96;100.00;99811.88;273364;1270;22192;-80
2024/01/22 06:52:46;;;;;;;100.90;48.00;;;;;;;-5.92;100.00;99806.92;273239;1269;22602;-80
2024/01/22 06:58:48;;;;;;;97.70;44.50;;;;;;;-5.85;100.00;99803.48;273547;1269;22907;-80
2024/01/22 07:04:50;;;;;;;108.00;49.40;;;;;;;-5.83;100.00;99793.05;273603;1269;22385;-80
2024/01/22 07:10:52;;;;;;;110.30;48.70;;;;;;;-5.79;100.00;99784.64;273593;1269;22366;-80
2024/01/22 07:16:54;;;;;;;103.00;47.60;;;;;;;-5.72;100.00;99783.81;273738;1269;22210;-80
2024/01/22 07:22:56;;;;;;;109.20;50.80;;;;;;;-5.68;100.00;99785.89;273594;1269;22303;-80
2024/01/22 07:28:58;;;;;;;118.60;52.60;;;;;;;-5.53;100.00;99772.34;273611;1269;22309;-80
2024/01/22 07:35:00;;;;;;;132.80;57.60;;;;;;;-5.30;100.00;99761.98;273527;1270;22713;-80
2024/01/22 07:41:02;;;;;;;157.80;67.60;;;;;;;-4.98;100.00;99751.89;273666;1276;22192;-80
2024/01/22 07:47:04;;;;;;;158.80;72.30;;;;;;;-4.53;100.00;99728.88;272649;1269;23750;-79
2024/01/22 07:53:07;;;;;;;173.50;82.40;;;;;;;-4.00;100.00;99704.73;273164;1269;23140;-80
2024/01/22 07:59:09;;;;;;;197.30;91.80;;;;;;;-3.42;100.00;99696.05;270764;1269;22376;-81
2024/01/22 08:05:13;;;;;;;182.50;89.40;;;;;;;-2.76;100.00;99681.32;270326;1269;22514;-82
2024/01/22 08:11:15;;;;;;;196.20;97.10;;;;;;;-2.20;100.00;99671.36;271277;1272;23016;-81
2024/01/22 08:17:17;;;;;;;200.30;97.30;;;;;;;-1.58;100.00;99657.25;273723;1270;23578;-82
2024/01/22 08:23:18;;;;;;;187.70;97.80;;;;;;;-0.85;100.00;99649.39;270376;1269;22542;-81
2024/01/22 08:29:20;;;;;;;212.10;110.90;;;;;;;-0.22;100.00;99645.91;270291;1269;22672;-81
2024/01/22 08:35:22;;;;;;;258.90;136.80;;;;;;;0.31;100.00;99632.42;270689;1258;22495;-81
2024/01/22 08:41:27;;;;;;;214.00;117.70;;;;;;;0.66;100.00;99623.48;273386;1269;22211;-81
2024/01/22 08:47:28;;;;;;;224.20;118.70;;;;;;;1.08;100.00;99605.47;273486;1264;23091;-82
2024/01/22 08:53:30;;;;;;;229.20;122.30;;;;;;;1.68;100.00;99592.92;273570;1269;22222;-82
2024/01/22 08:59:32;;;;;;;81.90;40.50;;;;;;;2.42;100.00;99579.61;273489;1269;22345;-82
2024/01/22 09:06:24;;;;;;;29.20;16.50;;;;;;;3.30;100.00;99562.89;273606;1269;22367;-83
2024/01/22 09:12:26;;;;;;;20.50;10.40;;;;;;;4.39;100.00;99552.23;273690;1269;22423;-83
2024/01/22 09:18:28;;;;;;;19.00;10.70;;;;;;;5.21;100.00;99544.70;273632;1269;22212;-82
2024/01/22 09:24:31;;;;;;;21.90;11.30;;;;;;;5.85;100.00;99538.64;273714;1269;23503;-82
2024/01/22 09:30:32;;;;;;;19.10;9.10;;;;;;;6.42;100.00;99523.63;273216;1272;22462;-84
2024/01/22 09:36:34;;;;;;;93.40;52.00;;;;;;;6.92;97.91;99514.49;273641;1269;22400;-83
2024/01/22 09:42:36;;;;;;;135.30;81.00;;;;;;;7.27;97.72;99498.14;273004;1269;22612;-83
2024/01/22 09:48:39;;;;;;;142.70;86.20;;;;;;;7.38;95.68;99487.44;273242;1273;22225;-84
2024/01/22 09:54:41;;;;;;;136.00;82.20;;;;;;;7.38;97.37;99467.29;273569;1269;22450;-84
2024/01/22 10:00:46;;;;;;;129.40;75.20;;;;;;;7.60;96.51;99453.80;271470;1271;22199;-84
2024/01/22 10:06:48;;;;;;;114.70;63.50;;;;;;;7.47;92.15;99453.63;273791;1269;22155;-84
2024/01/22 10:13:03;;;;;;;104.30;50.20;;;;;;;7.22;92.69;99450.20;273606;1269;22407;-84
2024/01/22 10:19:07;;;;;;;104.20;50.80;;;;;;;7.10;91.63;99440.17;273609;1269;22388;-84
2024/01/22 10:25:09;;;;;;;209.00;70.50;;;;;;;6.88;92.48;99432.80;273785;1269;23584;-85
2024/01/22 10:31:12;;;;;;;105.60;48.10;;;;;;;6.55;91.74;99433.16;273783;1272;22175;-85
2024/01/22 10:37:23;;;;;;;89.90;47.50;;;;;;;6.18;92.50;99438.65;273756;1271;22207;-86
2024/01/22 10:43:29;;;;;;;90.00;42.20;;;;;;;6.04;93.22;99446.84;273799;1276;22202;-86
2024/01/22 10:49:33;;;;;;;72.60;38.70;;;;;;;6.19;94.58;99442.77;273695;1273;22201;-86
2024/01/22 10:55:49;;;;;;;68.20;34.20;;;;;;;6.39;93.71;99438.06;273806;1258;23503;-86
2024/01/22 11:01:53;;;;;;;59.40;30.50;;;;;;;6.51;93.46;99434.98;273749;1269;23070;-85
2024/01/22 11:07:56;;;;;;;57.80;29.80;;;;;;;6.54;94.72;99429.08;273736;1269;23219;-85
2024/01/22 11:13:59;;;;;;;52.80;27.50;;;;;;;6.57;92.99;99424.90;273611;1269;22929;-85
2024/01/22 11:20:20;;;;;;;46.50;23.60;;;;;;;6.62;94.77;99419.81;273786;1276;22257;-85
2024/01/22 11:26:22;;;;;;;49.00;24.80;;;;;;;6.69;94.15;99412.02;273017;1276;22572;-85
2024/01/22 11:32:32;;;;;;;55.80;24.70;;;;;;;6.75;93.12;99409.98;270272;1268;22611;-86
2024/01/22 11:38:59;;;;;;;45.00;21.00;;;;;;;6.82;92.66;99403.52;270469;1253;22553;-85
2024/01/22 11:45:14;;;;;;;44.60;21.80;;;;;;;6.92;91.50;99396.37;271062;1263;22690;-87
2024/01/22 11:51:23;;;;;;;41.50;20.80;;;;;;;7.03;91.38;99383.89;270239;1269;22586;-85
2024/01/22 11:57:41;;;;;;;24.40;11.30;;;;;;;7.12;91.57;99384.64;273656;1276;22221;-85
2024/01/22 12:03:50;;;;;;;26.90;11.40;;;;;;;7.23;89.04;99392.29;273481;1269;22413;-86
2024/01/22 12:09:59;;;;;;;19.90;9.30;;;;;;;7.32;88.60;99385.86;272065;1269;24366;-86
2024/01/22 12:16:01;;;;;;;15.60;6.50;;;;;;;7.41;88.11;99381.33;272590;1269;23746;-87
2024/01/22 12:22:03;;;;;;;11.40;5.10;;;;;;;7.48;86.03;99373.81;273658;1269;22199;-86
2024/01/22 12:28:10;;;;;;;6.40;3.20;;;;;;;7.52;85.03;99370.21;271029;1270;23449;-88
2024/01/22 12:34:13;;;;;;;12.60;4.50;;;;;;;7.60;84.47;99362.80;273314;1269;22440;-89
2024/01/22 12:40:18;;;;;;;5.60;2.80;;;;;;;7.56;81.18;99357.56;272251;1259;22709;-90
2024/01/22 12:46:21;;;;;;;9.40;2.80;;;;;;;7.47;80.69;99352.94;270939;1269;22449;-89
2024/01/22 12:52:26;;;;;;;5.10;1.80;;;;;;;7.31;79.95;99337.59;272053;1269;22549;-88
2024/01/22 12:58:32;;;;;;;5.80;2.00;;;;;;;7.34;77.35;99314.50;271493;1269;23324;-90
2024/01/22 13:05:23;;;;;;;4.30;1.90;;;;;;;7.34;74.43;99296.30;271179;1269;25341;-90
2024/01/22 13:11:28;;;;;;;6.10;2.00;;;;;;;7.26;73.30;99302.13;270937;1269;23913;-90
2024/01/22 13:17:53;;;;;;;5.50;2.50;;;;;;;7.14;73.91;99302.41;271018;1269;22557;-91
2024/01/22 13:31:14;;;;;;;4.80;2.00;;;;;;;6.81;69.74;99269.60;271740;1269;23386;-93
2024/01/22 13:37:58;;;;;;;5.10;2.10;;;;;;;6.66;69.40;99260.05;270909;1269;23305;-92
2024/01/22 13:45:05;;;;;;;3.60;2.00;;;;;;;6.53;68.83;99236.80;271481;1269;22558;-91
2024/01/22 13:52:06;;;;;;;5.40;2.40;;;;;;;6.53;66.17;99213.79;270953;1269;23389;-91
2024/01/22 13:58:43;;;;;;;8.10;3.10;;;;;;;6.85;63.83;99199.38;272856;1269;22427;-92
2024/01/22 14:05:10;;;;;;;6.30;2.70;;;;;;;6.94;63.65;99190.83;273033;1270;22288;-91
2024/01/22 14:11:42;;;;;;;7.30;3.50;;;;;;;6.92;63.62;99179.13;273173;1269;22936;-92
2024/01/22 14:18:05;;;;;;;7.60;3.10;;;;;;;6.75;62.59;99186.10;272387;1269;23777;-92
2024/01/22 14:24:29;;;;;;;7.30;3.40;;;;;;;6.49;62.23;99193.61;273111;1273;22310;-92
2024/01/22 14:31:03;;;;;;;;;;;;;;;;;;;;;
2024/01/22 15:01:47;;;;;;;7.60;3.90;;;;;;;4.94;62.61;99169.89;273192;1276;22233;-92
